Hantsport, Canada
Current Conditions -  °F | °C
As of 8:00 AM on Thursday 29 Jan 2015 (Local Time) from CYHZ Reporting Station
Clear Clear  
Wind Chill: -2°   Ceiling: Unl
Heat Index: 10°   Visibility: 15mi
Dew Point:   Wind: 8mph
Humidity: 92%   Direction: 340°NNW
Pressure: 30.12"   Gusts: NA
Location:  45.07°N, 64.18°W
Report Text: CYHZ 291200Z 34007KT 15SM SKC M12/M13 A3012 RMK PRESRR SLP209
Loading
Personal Weather Stations






























Interactive Weather Map New forecast layout! Learn more

10-Day Weather Forecast

Advertisements
Track Severe Weather on mobile